Observations
| Time | Sensor | AQI | SAQ | Temp °C | Hum % | Pres Pa | CO μg/m³ | H₂S μg/m³ | NO μg/m³ | NO₂ μg/m³ | O₃ μg/m³ | SO₂ μg/m³ | CO₂e PPM | VOC PPM | PM1 μg/m³ | PM2.5 μg/m³ | PM4 μg/m³ | PM10 μg/m³ | TPS µm |
|---|---|---|---|---|---|---|---|---|---|---|---|---|---|---|---|---|---|---|---|
| Tuesday 11 August 2026 | |||||||||||||||||||
| 07:53 | Trim Patrick St | 1 | 16.9 | 73 | 38,460 | 0.59 | 0 | 2.39 | 27.42 | 18.92 | 0 | 4.57 | 7.81 | 8.6 | |||||
| 07:52 | Trim Market St | 1 | 20.2 | 64 | 57,356 | 0.62 | 0 | 3.07 | 11.87 | 9.28 | 0 | 1.43 | 3.32 | 4.89 | |||||
| 07:52 | Trim Patrick St | 1 | 16.7 | 73 | 38,460 | 0.6 | 0 | 2.19 | 33.35 | 0 | 0 | 3.71 | 7.09 | 7.79 | |||||
| 07:51 | Trim Patrick St | 1 | 16.5 | 74 | 38,460 | 0.6 | 0 | 2.21 | 33.23 | 16.64 | 0 | 3.71 | 7 | 7.7 | |||||
| 07:50 | Trim Market St | 1 | 19.9 | 65 | 57,250 | 0.63 | 0 | 2.91 | 12.84 | 14.4 | 0 | 1.43 | 3.29 | 5.56 | |||||
| 07:50 | Trim Patrick St | 1 | 16.3 | 75 | 38,460 | 0.6 | 0 | 2.23 | 31.49 | 16.3 | 0 | 4.57 | 7.69 | 8.46 | |||||
| 07:49 | Trim Patrick St | 1 | 16.1 | 75 | 38,460 | 0.59 | 0 | 2.27 | 36.18 | 12.74 | 0 | 3.71 | 6.95 | 7.64 | |||||
| 07:48 | Trim Market St | 1 | 19.6 | 66 | 57,123 | 0.61 | 0 | 2.48 | 12 | 8.65 | 0 | 1.43 | 3.74 | 5.58 | |||||
| 07:48 | Trim Patrick St | 1 | 16 | 76 | 38,460 | 0.57 | 0.64 | 2.29 | 37.55 | 15.27 | 0 | 3.71 | 6.92 | 7.61 | |||||
| 07:46 | Trim Patrick St | 1 | 15.6 | 76 | 38,460 | 0.55 | 1.58 | 2.38 | 40.97 | 9.27 | 0 | 4.57 | 7.58 | 8.34 | |||||
| 07:42 | Trim Patrick St | 1 | 14.8 | 77 | 38,460 | 0.57 | 3.64 | 2.6 | 46.55 | 5.09 | 0 | 3.71 | 6.8 | 7.48 | |||||
| 07:41 | Trim Patrick St | 1 | 14.7 | 78 | 38,460 | 0.63 | 4.16 | 2.65 | 47.51 | 4.16 | 0 | 3.71 | 7.49 | 8.24 | |||||
| 07:40 | Trim Market St | 1 | 18.3 | 69 | 56,524 | 0.61 | 0 | 2.27 | 13.89 | 24.32 | 0 | 1.43 | 2.63 | 4.35 | |||||
| 07:40 | Trim Patrick St | 1 | 14.5 | 78 | 38,460 | 0.52 | 3.79 | 2.84 | 48.19 | 0 | 0 | 4.57 | 7.49 | 8.23 | |||||
| 07:39 | Trim Market St | 2 | 18.2 | 69 | 56,452 | 0.63 | 0 | 2.25 | 14.68 | 20.88 | 0 | 0 | 2.13 | 4.36 | |||||
| 07:39 | Trim Patrick St | 1 | 14.4 | 78 | 38,460 | 0.52 | 3.92 | 2.88 | 41.35 | 10.9 | 0 | 3.71 | 7.45 | 8.19 | |||||
| 07:38 | Trim Market St | 1 | 18.1 | 69 | 56,341 | 0.65 | 0 | 2.19 | 11.75 | 10.49 | 0 | 2.14 | 3.58 | 6.27 | |||||
| 07:38 | Trim Patrick St | 1 | 14.3 | 78 | 38,460 | 0.51 | 3.32 | 2.94 | 44.77 | 5.7 | 0 | 2.86 | 6.03 | 6.63 | |||||
| 07:37 | Trim Market St | 1 | 18 | 70 | 56,165 | 0.7 | 0 | 2.22 | 13.93 | 18.79 | 0 | 2.14 | 4.53 | 6.9 | |||||
| 07:37 | Trim Patrick St | 1 | 14.2 | 79 | 38,460 | 0.49 | 1.43 | 2.87 | 30.03 | 13.52 | 0 | 3.71 | 7.41 | 8.16 | |||||